createdAt,value
2023-05-22T00:01:06.564Z,47.14
2023-05-22T00:03:33.363Z,47.25
2023-05-22T00:06:00.171Z,47.31
2023-05-22T00:08:29.415Z,47.27
2023-05-22T00:10:56.643Z,47.28
2023-05-22T00:13:23.391Z,47.64
2023-05-22T00:15:49.997Z,47.95
2023-05-22T00:18:16.760Z,47.87
2023-05-22T00:20:46.502Z,47.82
2023-05-22T00:23:15.566Z,47.85
2023-05-22T00:25:42.425Z,48.11
2023-05-22T00:28:08.986Z,48.30
2023-05-22T00:30:37.081Z,47.90
2023-05-22T00:33:04.250Z,47.62
2023-05-22T00:35:31.041Z,47.78
2023-05-22T00:37:57.723Z,47.90
2023-05-22T00:40:24.462Z,48.42
2023-05-22T00:42:51.004Z,48.12
2023-05-22T00:45:17.700Z,48.10
2023-05-22T00:47:44.368Z,48.41
2023-05-22T00:50:12.475Z,48.55
2023-05-22T00:52:42.552Z,48.64
2023-05-22T00:55:10.875Z,48.43
2023-05-22T00:57:41.952Z,48.41
2023-05-22T01:00:13.142Z,48.65
2023-05-22T01:02:42.953Z,49.05
2023-05-22T01:05:13.076Z,48.95
2023-05-22T01:07:40.025Z,49.09
2023-05-22T01:10:07.361Z,49.35
2023-05-22T01:12:59.917Z,49.72
2023-05-22T01:15:43.326Z,49.76
2023-05-22T01:18:32.145Z,50.16
2023-05-22T01:21:04.620Z,50.11
2023-05-22T01:23:57.507Z,50.40
2023-05-22T01:26:42.587Z,50.56
2023-05-22T01:29:26.713Z,50.72
2023-05-22T01:31:55.439Z,50.47
2023-05-22T01:34:22.136Z,50.74
2023-05-22T01:36:50.841Z,51.01
2023-05-22T01:39:17.904Z,51.11
2023-05-22T01:41:44.787Z,51.03
2023-05-22T01:44:11.435Z,50.61
2023-05-22T01:46:37.994Z,51.15
2023-05-22T01:49:04.673Z,51.21
2023-05-22T01:51:53.828Z,51.20
2023-05-22T01:54:42.300Z,50.96
2023-05-22T01:57:27.512Z,51.12
2023-05-22T02:00:00.011Z,51.56
2023-05-22T02:02:28.317Z,51.49
2023-05-22T02:05:00.882Z,51.40
2023-05-22T02:07:28.987Z,51.50
2023-05-22T02:09:57.021Z,51.63
2023-05-22T02:12:24.505Z,51.73
2023-05-22T02:14:51.605Z,51.88
2023-05-22T02:17:18.971Z,52.08
2023-05-22T02:19:45.712Z,52.05
2023-05-22T02:22:15.922Z,52.04
2023-05-22T02:24:46.765Z,51.97
2023-05-22T02:27:13.498Z,51.76
2023-05-22T02:29:40.483Z,52.45
2023-05-22T02:32:07.289Z,52.06
2023-05-22T02:34:35.075Z,52.42
2023-05-22T02:37:05.576Z,51.59
2023-05-22T02:39:32.341Z,51.69
2023-05-22T02:41:58.966Z,51.95
2023-05-22T02:44:25.533Z,52.31
2023-05-22T02:46:52.123Z,52.36
2023-05-22T02:49:18.798Z,52.27
2023-05-22T02:51:47.669Z,52.30
2023-05-22T02:54:15.766Z,52.47
2023-05-22T02:56:43.418Z,52.72
2023-05-22T02:59:10.266Z,52.60
2023-05-22T03:01:38.724Z,52.83
2023-05-22T03:04:06.415Z,52.71
2023-05-22T03:06:34.323Z,52.80
2023-05-22T03:09:01.233Z,52.98
2023-05-22T03:11:27.858Z,53.01
2023-05-22T03:13:54.398Z,53.30
2023-05-22T03:16:21.005Z,53.14
2023-05-22T03:18:47.892Z,53.33
2023-05-22T03:21:14.450Z,53.62
2023-05-22T03:23:40.973Z,53.42
2023-05-22T03:26:07.645Z,53.60
2023-05-22T03:28:34.298Z,53.81
2023-05-22T03:31:01.245Z,53.47
2023-05-22T03:33:27.791Z,54.37
2023-05-22T03:35:54.410Z,54.31
2023-05-22T03:38:20.962Z,54.01
2023-05-22T03:40:47.834Z,53.86
2023-05-22T03:43:14.711Z,54.04
2023-05-22T03:45:41.308Z,53.84
2023-05-22T03:48:08.410Z,52.95
2023-05-22T03:50:35.237Z,53.56
2023-05-22T03:53:02.152Z,52.80
2023-05-22T03:55:30.981Z,53.25
2023-05-22T03:57:57.979Z,52.94
2023-05-22T04:00:26.772Z,52.96
2023-05-22T04:02:55.064Z,53.13
2023-05-22T04:05:22.520Z,53.19
2023-05-22T04:07:49.658Z,52.64
2023-05-22T04:10:16.905Z,52.91
2023-05-22T04:12:43.891Z,52.56
2023-05-22T04:15:11.016Z,51.96
2023-05-22T04:17:41.182Z,51.85
2023-05-22T04:20:09.023Z,51.42
2023-05-22T04:22:36.913Z,51.23
2023-05-22T04:25:03.731Z,51.28
2023-05-22T04:27:30.630Z,51.06
2023-05-22T04:30:00.110Z,50.58
2023-05-22T04:32:27.615Z,50.66
2023-05-22T04:34:54.271Z,50.97
2023-05-22T04:37:21.047Z,50.66
2023-05-22T04:39:47.871Z,50.82
2023-05-22T04:42:15.886Z,50.77
2023-05-22T04:44:42.662Z,51.04
2023-05-22T04:47:14.513Z,51.51
2023-05-22T04:49:45.972Z,51.25
2023-05-22T04:52:12.685Z,51.12
2023-05-22T04:54:39.420Z,51.73
2023-05-22T04:57:06.129Z,51.65
2023-05-22T04:59:38.080Z,52.48
2023-05-22T05:02:07.515Z,52.02
2023-05-22T05:04:34.279Z,52.07
2023-05-22T05:07:02.413Z,52.04
2023-05-22T05:09:29.187Z,52.39
2023-05-22T05:11:55.771Z,52.32
2023-05-22T05:14:22.342Z,52.60
2023-05-22T05:16:48.957Z,53.20
2023-05-22T05:19:16.616Z,52.64
2023-05-22T05:21:43.534Z,52.81
2023-05-22T05:24:10.132Z,52.78
2023-05-22T05:26:36.697Z,52.63
2023-05-22T05:29:03.260Z,52.65
2023-05-22T05:31:29.941Z,53.30
2023-05-22T05:33:58.148Z,53.43
2023-05-22T05:36:25.202Z,53.22
2023-05-22T05:38:51.694Z,53.56
2023-05-22T05:41:19.107Z,53.26
2023-05-22T05:43:45.669Z,53.33
2023-05-22T05:46:12.882Z,53.70
2023-05-22T05:48:39.508Z,53.56
2023-05-22T05:51:06.135Z,53.22
2023-05-22T05:53:32.819Z,53.60
2023-05-22T05:55:59.444Z,53.15
2023-05-22T05:58:25.977Z,52.79
2023-05-22T06:00:52.469Z,52.16
2023-05-22T06:03:19.078Z,52.37
2023-05-22T06:05:49.805Z,52.05
2023-05-22T06:08:16.416Z,51.14
2023-05-22T06:10:42.929Z,51.62
2023-05-22T06:13:09.444Z,51.75
2023-05-22T06:15:36.007Z,51.48
2023-05-22T06:18:02.611Z,51.39
2023-05-22T06:20:29.250Z,51.18
2023-05-22T06:22:55.986Z,50.98
2023-05-22T06:25:23.734Z,51.08
2023-05-22T06:27:50.251Z,50.10
2023-05-22T06:30:25.319Z,49.40
2023-05-22T06:32:58.937Z,49.72
2023-05-22T06:35:25.584Z,49.26
2023-05-22T06:37:52.296Z,49.50
2023-05-22T06:40:18.866Z,49.49
2023-05-22T06:42:45.538Z,49.47
2023-05-22T06:45:12.100Z,48.94
2023-05-22T06:47:38.716Z,48.95
2023-05-22T06:50:06.716Z,48.96
2023-05-22T06:52:33.818Z,48.65
2023-05-22T06:55:04.570Z,49.03
2023-05-22T06:57:32.264Z,49.18
2023-05-22T06:59:58.949Z,49.01
2023-05-22T07:02:26.170Z,49.62
2023-05-22T07:04:53.580Z,49.15
2023-05-22T07:07:20.532Z,48.84
2023-05-22T07:09:47.174Z,48.72
2023-05-22T07:12:13.781Z,48.63
2023-05-22T07:14:40.295Z,48.80
2023-05-22T07:17:06.911Z,48.28
2023-05-22T07:19:33.975Z,47.63
2023-05-22T07:22:00.587Z,47.73
2023-05-22T07:24:27.244Z,47.95
2023-05-22T07:26:53.859Z,48.30
2023-05-22T07:29:22.984Z,48.23
2023-05-22T07:31:50.078Z,48.02
2023-05-22T07:34:17.322Z,47.88
2023-05-22T07:36:43.860Z,48.11
2023-05-22T07:39:10.361Z,47.96
2023-05-22T07:41:36.950Z,47.34
2023-05-22T07:44:03.452Z,47.11
2023-05-22T07:46:30.032Z,46.61
2023-05-22T07:48:56.735Z,46.42
2023-05-22T07:51:23.298Z,46.60
2023-05-22T07:53:49.827Z,46.51
2023-05-22T07:56:17.614Z,46.31
2023-05-22T07:58:44.362Z,46.70
2023-05-22T08:01:11.116Z,45.77
2023-05-22T08:03:37.902Z,45.51
2023-05-22T08:06:04.783Z,46.09
2023-05-22T08:08:32.166Z,45.60
2023-05-22T08:13:28.183Z,44.81
2023-05-22T08:16:00.297Z,44.56
2023-05-22T08:18:29.173Z,44.77
2023-05-22T08:20:56.201Z,45.13
2023-05-22T08:23:23.094Z,44.98
2023-05-22T08:25:50.273Z,43.90
2023-05-22T08:28:17.293Z,43.65
2023-05-22T08:30:44.088Z,43.13
2023-05-22T08:33:12.137Z,43.20
2023-05-22T08:35:39.155Z,43.60
2023-05-22T08:38:05.863Z,43.25
2023-05-22T08:40:37.738Z,43.30
2023-05-22T08:43:07.838Z,43.50
2023-05-22T08:45:34.787Z,43.13
2023-05-22T08:48:06.509Z,43.26
2023-05-22T08:50:37.110Z,43.26
2023-05-22T08:53:06.842Z,41.90
2023-05-22T08:55:34.341Z,40.93
2023-05-22T08:58:01.414Z,40.45
2023-05-22T09:00:29.727Z,40.46
2023-05-22T09:02:57.662Z,40.53
2023-05-22T09:05:26.719Z,40.11
2023-05-22T09:07:56.539Z,39.68
2023-05-22T09:10:25.575Z,39.82
2023-05-22T09:13:09.279Z,40.64
2023-05-22T09:15:37.195Z,40.43
2023-05-22T09:18:05.003Z,40.97
2023-05-22T09:20:39.139Z,40.94
2023-05-22T09:23:19.827Z,40.54
2023-05-22T09:25:46.668Z,40.00
2023-05-22T09:28:13.637Z,39.17
2023-05-22T09:30:42.378Z,38.24
2023-05-22T09:33:12.910Z,36.84
2023-05-22T09:35:39.896Z,36.10
2023-05-22T09:38:06.549Z,35.92
2023-05-22T09:40:35.046Z,34.97
2023-05-22T09:43:06.560Z,34.47
2023-05-22T09:45:35.986Z,35.31
2023-05-22T09:48:04.345Z,34.31
2023-05-22T09:50:31.623Z,34.33
2023-05-22T09:53:02.069Z,34.23
2023-05-22T09:55:29.147Z,34.44
2023-05-22T09:57:56.957Z,34.76
2023-05-22T10:00:25.126Z,34.34
2023-05-22T10:03:24.623Z,34.06
2023-05-22T10:05:54.277Z,34.43
2023-05-22T10:08:25.142Z,34.38
2023-05-22T10:10:53.633Z,34.11
2023-05-22T10:13:21.457Z,33.92
2023-05-22T10:15:49.486Z,33.97
2023-05-22T10:18:17.479Z,33.67
2023-05-22T10:20:46.810Z,33.29
2023-05-22T10:23:15.323Z,32.70
2023-05-22T10:25:42.979Z,32.46
2023-05-22T10:28:10.825Z,32.75
2023-05-22T10:30:40.864Z,32.29
2023-05-22T10:33:16.766Z,31.83
2023-05-22T10:35:58.979Z,31.66
2023-05-22T10:38:28.328Z,31.40
2023-05-22T10:40:55.887Z,31.64
2023-05-22T10:43:22.995Z,31.60
2023-05-22T10:45:49.821Z,30.60
2023-05-22T10:48:22.204Z,29.88
2023-05-22T10:50:54.774Z,29.40
2023-05-22T10:53:24.688Z,29.16
2023-05-22T10:55:53.308Z,29.26
2023-05-22T10:58:38.295Z,29.41
2023-05-22T11:01:21.395Z,29.88
2023-05-22T11:04:11.599Z,29.36
2023-05-22T11:06:46.320Z,30.37
2023-05-22T11:09:31.961Z,29.78
2023-05-22T11:12:31.045Z,28.87
2023-05-22T11:15:06.154Z,28.18
2023-05-22T11:17:36.191Z,27.80
2023-05-22T11:20:05.514Z,28.23
2023-05-22T11:22:37.176Z,27.87
2023-05-22T11:25:09.652Z,27.95
2023-05-22T11:27:37.283Z,28.30
2023-05-22T11:30:04.167Z,28.89
2023-05-22T11:32:31.003Z,28.22
2023-05-22T11:34:57.914Z,28.40
2023-05-22T11:37:24.495Z,27.80
2023-05-22T11:39:56.777Z,27.47
2023-05-22T11:42:23.713Z,27.59
2023-05-22T11:44:50.414Z,27.23
2023-05-22T11:47:16.997Z,27.60
2023-05-22T11:49:44.060Z,27.67
2023-05-22T11:52:10.947Z,26.99
2023-05-22T11:54:38.925Z,25.79
2023-05-22T11:57:08.330Z,25.81
2023-05-22T11:59:35.694Z,25.29
2023-05-22T12:02:02.281Z,24.19
2023-05-22T12:04:28.845Z,23.80
2023-05-22T12:06:56.084Z,22.38
2023-05-22T12:09:23.228Z,21.57
2023-05-22T12:11:49.910Z,22.62
2023-05-22T12:14:16.579Z,22.03
2023-05-22T12:16:44.449Z,22.10
2023-05-22T12:19:12.096Z,22.58
2023-05-22T12:21:39.439Z,21.97
2023-05-22T12:24:06.424Z,20.82
2023-05-22T12:26:33.101Z,20.11
2023-05-22T12:29:00.268Z,19.29
2023-05-22T12:31:27.188Z,18.82
2023-05-22T12:33:55.139Z,17.81
2023-05-22T12:36:31.157Z,18.83
2023-05-22T12:38:57.836Z,18.16
2023-05-22T12:41:24.321Z,18.56
2023-05-22T12:43:51.070Z,18.53
2023-05-22T12:46:17.755Z,19.29
2023-05-22T12:48:44.271Z,18.74
2023-05-22T12:51:10.917Z,17.04
2023-05-22T12:53:37.403Z,16.70
2023-05-22T12:56:04.173Z,18.42
2023-05-22T12:58:30.682Z,17.49
2023-05-22T13:00:57.221Z,17.91
2023-05-22T13:03:23.907Z,17.45
2023-05-22T13:05:50.415Z,16.07
2023-05-22T13:08:17.004Z,16.65
2023-05-22T13:10:43.586Z,17.06
2023-05-22T13:13:10.076Z,17.07
2023-05-22T13:15:36.631Z,17.02
2023-05-22T13:18:04.087Z,16.72
2023-05-22T13:20:30.666Z,16.61
2023-05-22T13:22:57.404Z,16.22
2023-05-22T13:25:24.441Z,15.99
2023-05-22T13:27:51.058Z,16.36
2023-05-22T13:30:17.615Z,15.86
2023-05-22T13:32:44.168Z,17.65
2023-05-22T13:35:10.770Z,17.56
2023-05-22T13:37:37.861Z,16.94
2023-05-22T13:40:04.894Z,16.62
2023-05-22T13:42:31.438Z,16.59
2023-05-22T13:44:58.253Z,17.11
2023-05-22T13:47:25.965Z,16.76
2023-05-22T13:49:52.523Z,16.28
2023-05-22T13:52:18.999Z,15.48
2023-05-22T13:54:45.667Z,15.04
2023-05-22T13:57:12.250Z,16.43
2023-05-22T13:59:38.803Z,16.74
2023-05-22T14:02:05.784Z,16.42
2023-05-22T14:04:32.337Z,16.76
2023-05-22T14:06:59.093Z,17.14
2023-05-22T14:09:25.774Z,16.50
2023-05-22T14:11:52.313Z,17.11
2023-05-22T14:14:23.883Z,16.85
2023-05-22T14:16:51.613Z,16.51
2023-05-22T14:19:19.185Z,15.92
2023-05-22T14:21:48.419Z,15.55
2023-05-22T14:24:15.039Z,15.99
2023-05-22T14:26:41.659Z,15.58
2023-05-22T14:29:08.302Z,15.08
2023-05-22T14:31:45.881Z,14.75
2023-05-22T14:34:12.636Z,15.30
2023-05-22T14:36:39.106Z,14.62
2023-05-22T14:39:05.616Z,14.93
2023-05-22T14:41:32.116Z,14.30
2023-05-22T14:43:58.635Z,13.77
2023-05-22T14:46:25.231Z,12.96
2023-05-22T14:48:51.797Z,13.82
2023-05-22T14:51:21.746Z,14.36
2023-05-22T14:53:48.460Z,14.35
2023-05-22T14:56:14.986Z,14.53
2023-05-22T14:58:41.555Z,15.08
2023-05-22T15:01:08.040Z,14.85
2023-05-22T15:03:34.556Z,15.33
2023-05-22T15:06:01.110Z,15.19
2023-05-22T15:08:27.646Z,14.55
2023-05-22T15:10:54.168Z,14.80
2023-05-22T15:13:21.506Z,16.01
2023-05-22T15:15:48.030Z,17.22
2023-05-22T15:18:14.667Z,16.93
2023-05-22T15:20:41.231Z,16.00
2023-05-22T15:23:07.766Z,15.31
2023-05-22T15:25:36.437Z,15.32
2023-05-22T15:28:06.379Z,14.57
2023-05-22T15:30:38.863Z,15.64
2023-05-22T15:33:05.729Z,15.37
2023-05-22T15:35:32.328Z,14.69
2023-05-22T15:37:59.041Z,15.71
2023-05-22T15:40:25.710Z,15.87
2023-05-22T15:42:53.197Z,15.93
2023-05-22T15:45:20.270Z,17.96
2023-05-22T15:47:47.411Z,18.30
2023-05-22T15:50:14.102Z,19.33
2023-05-22T15:52:40.999Z,19.63
2023-05-22T15:55:07.946Z,19.42
2023-05-22T15:57:34.571Z,19.46
2023-05-22T16:00:01.199Z,19.20
2023-05-22T16:02:27.820Z,19.44
2023-05-22T16:04:54.331Z,19.09
2023-05-22T16:07:20.887Z,18.77
2023-05-22T16:09:47.404Z,18.74
2023-05-22T16:12:13.934Z,18.48
2023-05-22T16:14:40.599Z,18.97
2023-05-22T16:17:07.674Z,19.21
2023-05-22T16:19:34.317Z,19.22
2023-05-22T16:22:01.023Z,18.74
2023-05-22T16:24:27.540Z,18.90
2023-05-22T16:26:56.368Z,19.54
2023-05-22T16:29:22.907Z,19.74
2023-05-22T16:31:49.580Z,18.97
2023-05-22T16:34:16.182Z,19.76
2023-05-22T16:36:42.822Z,19.60
2023-05-22T16:39:09.503Z,20.07
2023-05-22T16:41:39.144Z,21.00
2023-05-22T16:44:05.761Z,22.28
2023-05-22T16:46:32.424Z,22.75
2023-05-22T16:48:59.072Z,23.00
2023-05-22T16:51:25.663Z,23.63
2023-05-22T16:53:52.488Z,23.52
2023-05-22T16:56:20.806Z,23.69
2023-05-22T16:58:47.724Z,24.04
2023-05-22T17:01:14.702Z,23.72
2023-05-22T17:03:41.827Z,23.75
2023-05-22T17:06:09.019Z,22.43
2023-05-22T17:08:35.711Z,22.99
2023-05-22T17:11:02.330Z,22.61
2023-05-22T17:13:28.917Z,23.18
2023-05-22T17:15:55.539Z,23.76
2023-05-22T17:18:22.131Z,23.52
2023-05-22T17:20:50.284Z,23.25
2023-05-22T17:23:17.720Z,23.36
2023-05-22T17:25:46.592Z,23.76
2023-05-22T17:28:14.474Z,23.55
2023-05-22T17:30:42.662Z,24.35
2023-05-22T17:33:09.933Z,23.68
2023-05-22T17:35:36.525Z,24.66
2023-05-22T17:38:03.246Z,24.73
2023-05-22T17:40:43.124Z,24.53
2023-05-22T17:43:11.259Z,25.09
2023-05-22T17:45:37.969Z,24.98
2023-05-22T17:48:04.914Z,25.17
2023-05-22T17:50:31.588Z,25.14
2023-05-22T17:52:58.286Z,25.41
2023-05-22T17:55:24.871Z,25.88
2023-05-22T17:57:51.563Z,26.16
2023-05-22T18:00:18.653Z,26.44
2023-05-22T18:02:45.657Z,25.65
2023-05-22T18:05:12.450Z,26.06
2023-05-22T18:07:39.538Z,26.31
2023-05-22T18:10:06.891Z,26.24
2023-05-22T18:12:34.501Z,26.95
2023-05-22T18:15:02.598Z,27.02
2023-05-22T18:17:29.103Z,27.31
2023-05-22T18:19:55.885Z,27.86
2023-05-22T18:22:22.475Z,27.94
2023-05-22T18:24:49.213Z,27.81
2023-05-22T18:27:15.769Z,28.27
2023-05-22T18:29:42.375Z,28.58
2023-05-22T18:32:10.828Z,29.41
2023-05-22T18:34:37.820Z,29.00
2023-05-22T18:37:04.757Z,29.81
2023-05-22T18:39:31.569Z,29.95
2023-05-22T18:41:58.569Z,30.18
2023-05-22T18:44:25.366Z,30.25
2023-05-22T18:46:52.045Z,30.88
2023-05-22T18:49:18.882Z,31.01
2023-05-22T18:51:45.817Z,31.49
2023-05-22T18:54:12.382Z,31.35
2023-05-22T18:56:39.345Z,31.86
2023-05-22T18:59:05.993Z,32.02
2023-05-22T19:01:33.179Z,32.37
2023-05-22T19:04:00.560Z,32.75
2023-05-22T19:06:29.858Z,32.93
2023-05-22T19:08:56.425Z,33.16
2023-05-22T19:11:23.018Z,33.08
2023-05-22T19:13:50.817Z,33.38
2023-05-22T19:16:17.507Z,33.80
2023-05-22T19:18:44.129Z,34.06
2023-05-22T19:21:10.845Z,33.89
2023-05-22T19:23:38.595Z,34.53
2023-05-22T19:26:05.427Z,34.63
2023-05-22T19:28:32.366Z,34.97
2023-05-22T19:31:00.093Z,35.35
2023-05-22T19:33:27.292Z,34.89
2023-05-22T19:35:53.848Z,35.31
2023-05-22T19:38:20.431Z,35.76
2023-05-22T19:40:47.017Z,36.44
2023-05-22T19:43:13.777Z,36.75
2023-05-22T19:45:40.530Z,36.42
2023-05-22T19:48:07.225Z,36.80
2023-05-22T19:50:35.492Z,37.10
2023-05-22T19:53:02.247Z,37.46
2023-05-22T19:55:28.962Z,37.54
2023-05-22T19:57:55.812Z,38.07
2023-05-22T20:00:22.873Z,38.19
2023-05-22T20:02:50.149Z,38.64
2023-05-22T20:05:16.961Z,38.99
2023-05-22T20:07:43.908Z,38.82
2023-05-22T20:10:12.296Z,39.43
2023-05-22T20:12:40.007Z,38.90
2023-05-22T20:15:08.591Z,39.44
2023-05-22T20:17:36.020Z,39.72
2023-05-22T20:20:02.649Z,40.00
2023-05-22T20:22:29.199Z,40.06
2023-05-22T20:24:55.953Z,40.58
2023-05-22T20:27:22.562Z,40.46
2023-05-22T20:29:51.808Z,41.55
2023-05-22T20:32:18.279Z,41.40
2023-05-22T20:34:45.500Z,41.84
2023-05-22T20:37:13.623Z,41.96
2023-05-22T20:39:43.082Z,42.08
2023-05-22T20:42:11.627Z,42.59
2023-05-22T20:44:38.259Z,42.68
2023-05-22T20:47:05.880Z,42.45
2023-05-22T20:49:34.811Z,41.91
2023-05-22T20:52:01.949Z,41.96
2023-05-22T20:54:33.958Z,42.44
2023-05-22T20:57:03.856Z,42.39
2023-05-22T20:59:30.975Z,42.44
2023-05-22T21:01:57.836Z,42.58
2023-05-22T21:04:24.750Z,43.30
2023-05-22T21:06:51.418Z,43.26
2023-05-22T21:09:18.188Z,43.61
2023-05-22T21:11:44.732Z,43.75
2023-05-22T21:14:11.390Z,43.86
2023-05-22T21:16:39.534Z,44.08
2023-05-22T21:19:07.257Z,44.34
2023-05-22T21:21:35.591Z,44.31
2023-05-22T21:24:02.144Z,44.53
2023-05-22T21:26:28.635Z,44.64
2023-05-22T21:28:55.312Z,44.39
2023-05-22T21:31:21.854Z,43.93
2023-05-22T21:33:48.386Z,43.83
2023-05-22T21:36:14.930Z,43.76
2023-05-22T21:38:41.394Z,43.97
2023-05-22T21:41:07.943Z,44.04
2023-05-22T21:43:34.480Z,43.89
2023-05-22T21:46:00.973Z,43.84
2023-05-22T21:48:27.462Z,43.85
2023-05-22T21:50:54.095Z,43.85
2023-05-22T21:53:21.048Z,43.99
2023-05-22T21:55:47.647Z,43.98
2023-05-22T21:58:14.291Z,44.04
2023-05-22T22:00:41.161Z,44.15
2023-05-22T22:03:08.524Z,44.25
2023-05-22T22:05:35.974Z,44.08
2023-05-22T22:08:02.526Z,44.15
2023-05-22T22:10:29.052Z,44.45
2023-05-22T22:12:55.650Z,44.55
2023-05-22T22:15:22.491Z,44.58
2023-05-22T22:17:50.144Z,45.15
2023-05-22T22:20:18.663Z,45.00
2023-05-22T22:22:49.083Z,45.01
2023-05-22T22:25:15.666Z,45.25
2023-05-22T22:27:42.228Z,45.32
2023-05-22T22:30:09.883Z,45.18
2023-05-22T22:32:37.273Z,45.42
2023-05-22T22:35:03.975Z,45.64
2023-05-22T22:37:31.060Z,46.12
2023-05-22T22:39:57.599Z,46.29
2023-05-22T22:42:24.789Z,46.56
2023-05-22T22:44:51.276Z,47.04
2023-05-22T22:47:18.083Z,46.90
2023-05-22T22:49:44.576Z,47.37
2023-05-22T22:52:11.236Z,47.43
2023-05-22T22:54:37.921Z,47.39
2023-05-22T22:57:04.613Z,47.66
2023-05-22T22:59:31.753Z,47.64
2023-05-22T23:01:58.286Z,48.15
2023-05-22T23:04:24.937Z,48.38
2023-05-22T23:06:52.674Z,48.89
2023-05-22T23:09:19.254Z,48.76
2023-05-22T23:11:45.757Z,49.39
2023-05-22T23:14:13.432Z,49.49
2023-05-22T23:16:42.864Z,49.11
2023-05-22T23:19:10.934Z,49.11
2023-05-22T23:21:37.539Z,48.88
2023-05-22T23:24:04.929Z,48.71
2023-05-22T23:26:32.265Z,48.72
2023-05-22T23:28:59.869Z,48.37
2023-05-22T23:31:30.463Z,48.41
2023-05-22T23:33:57.715Z,48.87
2023-05-22T23:36:24.766Z,48.70
2023-05-22T23:38:51.312Z,48.33
2023-05-22T23:41:18.556Z,48.40
2023-05-22T23:43:46.253Z,48.84
2023-05-22T23:46:13.973Z,49.24
2023-05-22T23:48:41.709Z,49.75
2023-05-22T23:51:14.347Z,50.09
2023-05-22T23:53:42.032Z,50.65
2023-05-22T23:56:09.096Z,50.26
2023-05-22T23:58:35.733Z,50.38
